createdAt,value
2018-03-23T00:01:20.924Z,38.20
2018-03-23T00:03:48.685Z,38.30
2018-03-23T00:06:15.846Z,38.30
2018-03-23T00:08:43.912Z,38.30
2018-03-23T00:11:11.065Z,38.30
2018-03-23T00:13:39.125Z,38.40
2018-03-23T00:16:06.285Z,38.30
2018-03-23T00:18:34.045Z,38.50
2018-03-23T00:21:01.193Z,38.40
2018-03-23T00:23:28.645Z,38.40
2018-03-23T00:25:55.785Z,38.50
2018-03-23T00:28:23.272Z,38.50
2018-03-23T00:30:51.325Z,38.70
2018-03-23T00:33:18.485Z,38.60
2018-03-23T00:35:45.645Z,38.70
2018-03-23T00:38:13.804Z,38.70
2018-03-23T00:40:41.165Z,38.60
2018-03-23T00:43:09.445Z,38.80
2018-03-23T00:45:36.686Z,38.80
2018-03-23T00:48:03.832Z,38.80
2018-03-23T00:50:31.285Z,38.70
2018-03-23T00:52:58.745Z,38.80
2018-03-23T00:55:25.888Z,38.80
2018-03-23T00:57:53.046Z,38.80
2018-03-23T01:00:21.525Z,38.90
2018-03-23T01:02:48.886Z,38.90
2018-03-23T01:05:16.030Z,38.90
2018-03-23T01:07:43.192Z,39.00
2018-03-23T01:10:10.325Z,38.90
2018-03-23T01:12:37.465Z,39.00
2018-03-23T01:15:04.635Z,39.10
2018-03-23T01:17:31.768Z,39.00
2018-03-23T01:19:59.225Z,39.00
2018-03-23T01:22:26.685Z,39.00
2018-03-23T01:24:53.831Z,39.10
2018-03-23T01:27:20.985Z,39.00
2018-03-23T01:29:48.125Z,38.90
2018-03-23T01:32:15.592Z,38.90
2018-03-23T01:34:42.744Z,38.90
2018-03-23T01:37:09.886Z,38.90
2018-03-23T01:39:37.044Z,38.90
2018-03-23T01:42:04.504Z,38.90
2018-03-23T01:44:32.565Z,38.90
2018-03-23T01:46:59.730Z,38.90
2018-03-23T01:49:27.784Z,38.80
2018-03-23T01:51:54.952Z,38.90
2018-03-23T01:54:22.084Z,38.90
2018-03-23T01:56:49.245Z,38.90
2018-03-23T01:59:16.392Z,38.90
2018-03-23T02:01:45.384Z,38.90
2018-03-23T02:04:12.525Z,38.90
2018-03-23T02:06:39.685Z,38.90
2018-03-23T02:09:07.752Z,38.80
2018-03-23T02:11:35.832Z,38.90
2018-03-23T02:14:03.891Z,38.90
2018-03-23T02:16:31.044Z,38.90
2018-03-23T02:18:58.509Z,38.90
2018-03-23T02:21:26.564Z,38.90
2018-03-23T02:23:53.726Z,38.90
2018-03-23T02:26:20.871Z,38.90
2018-03-23T02:28:48.952Z,38.90
2018-03-23T02:31:16.086Z,38.70
2018-03-23T02:33:43.244Z,38.80
2018-03-23T02:36:10.397Z,38.80
2018-03-23T02:38:38.446Z,39.00
2018-03-23T02:41:05.916Z,38.90
2018-03-23T02:43:33.064Z,39.00
2018-03-23T02:46:00.248Z,39.00
2018-03-23T02:48:27.366Z,39.10
2018-03-23T02:50:54.811Z,39.00
2018-03-23T02:53:21.965Z,39.00
2018-03-23T02:55:49.327Z,39.00
2018-03-23T02:58:16.564Z,39.00
2018-03-23T03:00:43.726Z,39.00
2018-03-23T03:03:10.886Z,39.00
2018-03-23T03:05:38.646Z,39.20
2018-03-23T03:08:05.785Z,38.90
2018-03-23T03:10:32.844Z,38.90
2018-03-23T03:13:00.088Z,38.90
2018-03-23T03:15:27.245Z,38.90
2018-03-23T03:17:54.392Z,38.90
2018-03-23T03:20:21.845Z,38.90
2018-03-23T03:22:50.232Z,39.50
2018-03-23T03:25:17.365Z,39.00
2018-03-23T03:27:44.525Z,39.00
2018-03-23T03:30:12.286Z,39.10
2018-03-23T03:32:39.450Z,38.90
2018-03-23T03:35:06.585Z,39.00
2018-03-23T03:37:33.728Z,39.00
2018-03-23T03:40:00.886Z,38.90
2018-03-23T03:42:28.025Z,39.00
2018-03-23T03:44:55.202Z,39.00
2018-03-23T03:47:23.245Z,39.10
2018-03-23T03:49:50.404Z,39.00
2018-03-23T03:52:17.919Z,39.10
2018-03-23T03:54:45.305Z,39.60
2018-03-23T03:57:12.452Z,39.20
2018-03-23T03:59:39.926Z,39.00
2018-03-23T04:02:07.364Z,39.10
2018-03-23T04:04:34.825Z,39.10
2018-03-23T04:07:02.601Z,39.10
2018-03-23T04:09:29.739Z,39.10
2018-03-23T04:11:57.818Z,39.20
2018-03-23T04:14:25.609Z,39.50
2018-03-23T04:16:52.724Z,39.30
2018-03-23T04:19:19.879Z,39.30
2018-03-23T04:21:47.019Z,39.30
2018-03-23T04:24:14.478Z,39.30
2018-03-23T04:26:41.641Z,39.30
2018-03-23T04:29:08.699Z,39.30
2018-03-23T04:31:35.925Z,39.30
2018-03-23T04:34:03.079Z,39.10
2018-03-23T04:36:30.219Z,39.40
2018-03-23T04:38:57.380Z,39.40
2018-03-23T04:41:25.139Z,39.30
2018-03-23T04:43:52.293Z,39.30
2018-03-23T04:46:19.439Z,39.40
2018-03-23T04:48:46.899Z,39.40
2018-03-23T04:51:14.059Z,39.40
2018-03-23T04:53:41.819Z,39.40
2018-03-23T04:56:09.879Z,39.50
2018-03-23T04:58:37.039Z,39.50
2018-03-23T05:01:04.500Z,39.40
2018-03-23T05:03:31.639Z,39.50
2018-03-23T05:05:59.109Z,39.50
2018-03-23T05:08:27.179Z,39.60
2018-03-23T05:10:54.318Z,39.40
2018-03-23T05:13:21.470Z,39.50
2018-03-23T05:15:48.619Z,39.60
2018-03-23T05:18:15.759Z,39.60
2018-03-23T05:20:42.919Z,39.60
2018-03-23T05:23:10.059Z,39.70
2018-03-23T05:25:37.204Z,39.70
2018-03-23T05:28:04.359Z,39.70
2018-03-23T05:30:31.521Z,39.70
2018-03-23T05:32:59.580Z,39.70
2018-03-23T05:35:26.740Z,39.80
2018-03-23T05:37:54.799Z,39.90
2018-03-23T05:40:21.959Z,39.80
2018-03-23T05:42:50.019Z,40.00
2018-03-23T05:45:17.179Z,39.90
2018-03-23T05:47:45.239Z,40.00
2018-03-23T05:50:12.380Z,40.00
2018-03-23T05:52:39.546Z,39.90
2018-03-23T05:55:08.239Z,40.00
2018-03-23T05:57:36.003Z,40.10
2018-03-23T06:00:03.139Z,40.10
2018-03-23T06:02:30.299Z,40.10
2018-03-23T06:04:57.439Z,40.20
2018-03-23T06:07:24.899Z,40.10
2018-03-23T06:09:52.060Z,40.20
2018-03-23T06:12:19.499Z,40.20
2018-03-23T06:14:46.659Z,40.20
2018-03-23T06:17:14.720Z,40.30
2018-03-23T06:19:41.879Z,40.30
2018-03-23T06:22:09.939Z,40.20
2018-03-23T06:24:37.099Z,40.20
2018-03-23T06:27:04.239Z,40.20
2018-03-23T06:29:31.399Z,40.20
2018-03-23T06:31:59.159Z,40.40
2018-03-23T06:34:26.300Z,40.80
2018-03-23T06:36:53.459Z,40.30
2018-03-23T06:39:20.599Z,40.40
2018-03-23T06:41:48.599Z,40.30
2018-03-23T06:44:16.799Z,40.40
2018-03-23T06:46:44.199Z,40.30
2018-03-23T06:49:11.962Z,40.40
2018-03-23T06:51:39.120Z,40.40
2018-03-23T06:54:06.259Z,40.40
2018-03-23T06:56:33.406Z,40.40
2018-03-23T06:59:00.558Z,40.50
2018-03-23T07:01:27.699Z,40.40
2018-03-23T07:03:54.859Z,40.30
2018-03-23T07:06:22.019Z,40.50
2018-03-23T07:08:49.159Z,40.40
2018-03-23T07:11:16.319Z,40.40
2018-03-23T07:13:43.779Z,40.40
2018-03-23T07:16:11.839Z,40.50
2018-03-23T07:18:39.000Z,40.40
2018-03-23T07:21:06.439Z,40.40
2018-03-23T07:23:34.219Z,40.50
2018-03-23T07:26:01.362Z,40.50
2018-03-23T07:28:29.155Z,40.50
2018-03-23T07:30:56.279Z,40.50
2018-03-23T07:33:24.039Z,40.70
2018-03-23T07:35:51.179Z,41.10
2018-03-23T07:38:18.340Z,40.60
2018-03-23T07:40:45.479Z,40.70
2018-03-23T07:43:13.560Z,40.70
2018-03-23T07:45:41.620Z,40.70
2018-03-23T07:48:08.781Z,40.70
2018-03-23T07:50:35.919Z,40.50
2018-03-23T07:53:03.078Z,40.50
2018-03-23T07:55:31.138Z,40.80
2018-03-23T07:57:58.600Z,40.70
2018-03-23T08:00:25.741Z,41.10
2018-03-23T08:02:52.900Z,40.50
2018-03-23T08:05:20.959Z,40.80
2018-03-23T08:07:48.739Z,40.70
2018-03-23T08:10:15.881Z,40.80
2018-03-23T08:12:43.021Z,40.80
2018-03-23T08:15:10.171Z,40.80
2018-03-23T08:17:37.338Z,40.80
2018-03-23T08:20:04.799Z,40.70
2018-03-23T08:22:32.559Z,40.80
2018-03-23T08:25:00.319Z,40.70
2018-03-23T08:27:28.698Z,40.60
2018-03-23T08:29:56.760Z,40.60
2018-03-23T08:32:23.920Z,40.60
2018-03-23T08:34:51.060Z,40.60
2018-03-23T08:37:18.220Z,40.60
2018-03-23T08:39:45.980Z,40.70
2018-03-23T08:42:13.120Z,40.60
2018-03-23T08:44:40.317Z,40.60
2018-03-23T08:47:07.420Z,40.80
2018-03-23T08:49:34.580Z,40.60
2018-03-23T08:52:01.722Z,40.70
2018-03-23T08:54:28.885Z,40.70
2018-03-23T08:56:56.019Z,40.70
2018-03-23T08:59:23.180Z,40.80
2018-03-23T09:01:50.320Z,40.80
2018-03-23T09:04:18.080Z,40.80
2018-03-23T09:06:45.240Z,40.70
2018-03-23T09:09:13.000Z,40.70
2018-03-23T09:11:40.460Z,40.60
2018-03-23T09:14:07.600Z,40.70
2018-03-23T09:16:34.760Z,40.60
2018-03-23T09:19:09.580Z,40.80
2018-03-23T09:21:36.740Z,40.80
2018-03-23T09:24:04.800Z,41.00
2018-03-23T09:26:31.940Z,40.90
2018-03-23T09:28:59.100Z,41.00
2018-03-23T09:31:26.260Z,40.90
2018-03-23T09:33:53.980Z,41.00
2018-03-23T09:36:21.180Z,41.00
2018-03-23T09:38:48.320Z,40.90
2018-03-23T09:41:15.460Z,40.90
2018-03-23T09:43:42.620Z,40.80
2018-03-23T09:46:10.080Z,40.80
2018-03-23T09:48:37.246Z,40.90
2018-03-23T09:51:04.580Z,40.80
2018-03-23T09:53:31.820Z,40.90
2018-03-23T09:55:58.980Z,40.90
2018-03-23T09:58:26.120Z,40.90
2018-03-23T10:00:53.280Z,40.70
2018-03-23T10:03:21.040Z,40.80
2018-03-23T10:05:48.180Z,40.70
2018-03-23T10:08:15.340Z,40.80
2018-03-23T10:10:42.480Z,40.80
2018-03-23T10:13:09.641Z,40.80
2018-03-23T10:15:36.781Z,40.60
2018-03-23T10:18:03.940Z,40.60
2018-03-23T10:20:31.080Z,40.60
2018-03-23T10:22:58.240Z,40.60
2018-03-23T10:25:25.414Z,40.80
2018-03-23T10:27:52.521Z,40.80
2018-03-23T10:30:19.680Z,40.90
2018-03-23T10:32:46.820Z,40.80
2018-03-23T10:35:13.981Z,40.80
2018-03-23T10:37:41.141Z,40.80
2018-03-23T10:40:08.281Z,40.80
2018-03-23T10:42:36.050Z,40.90
2018-03-23T10:45:03.200Z,40.90
2018-03-23T10:47:30.340Z,40.80
2018-03-23T10:49:57.500Z,40.90
2018-03-23T10:52:25.580Z,41.00
2018-03-23T10:54:53.641Z,40.90
2018-03-23T10:57:21.404Z,40.80
2018-03-23T10:59:48.541Z,40.80
2018-03-23T11:05:23.700Z,40.60
2018-03-23T11:07:51.160Z,40.40
2018-03-23T11:10:18.300Z,40.40
2018-03-23T11:12:45.461Z,40.40
2018-03-23T11:15:13.520Z,40.60
2018-03-23T11:17:40.680Z,40.40
2018-03-23T11:20:07.820Z,40.60
2018-03-23T11:22:34.980Z,40.70
2018-03-23T11:25:03.041Z,40.40
2018-03-23T11:27:30.200Z,40.60
2018-03-23T11:29:57.340Z,40.50
2018-03-23T11:32:24.500Z,40.40
2018-03-23T11:34:51.640Z,40.50
2018-03-23T11:37:18.800Z,40.50
2018-03-23T11:39:45.945Z,40.50
2018-03-23T11:42:13.104Z,40.60
2018-03-23T11:44:40.240Z,40.50
2018-03-23T11:47:07.400Z,40.50
2018-03-23T11:49:34.321Z,40.50
2018-03-23T11:52:01.700Z,40.50
2018-03-23T11:54:29.761Z,40.60
2018-03-23T11:56:56.920Z,40.60
2018-03-23T11:59:24.983Z,40.70
2018-03-23T12:01:52.139Z,40.70
2018-03-23T12:04:19.280Z,40.70
2018-03-23T12:06:46.260Z,40.80
2018-03-23T12:09:13.280Z,40.80
2018-03-23T12:11:41.044Z,40.90
2018-03-23T12:14:08.181Z,40.90
2018-03-23T12:16:35.341Z,40.90
2018-03-23T12:19:03.101Z,40.80
2018-03-23T12:21:30.247Z,40.80
2018-03-23T12:23:57.401Z,40.80
2018-03-23T12:26:24.541Z,40.90
2018-03-23T12:28:51.701Z,40.90
2018-03-23T12:31:18.841Z,40.90
2018-03-23T12:33:46.001Z,40.80
2018-03-23T12:36:13.146Z,40.70
2018-03-23T12:38:40.301Z,40.70
2018-03-23T12:41:07.441Z,40.60
2018-03-23T12:43:34.623Z,40.40
2018-03-23T12:46:01.745Z,40.30
2018-03-23T12:48:28.901Z,40.30
2018-03-23T12:50:56.665Z,40.30
2018-03-23T12:53:23.821Z,40.20
2018-03-23T12:55:50.961Z,40.10
2018-03-23T12:58:18.121Z,40.10
2018-03-23T13:00:45.482Z,40.10
2018-03-23T13:03:13.321Z,40.20
2018-03-23T13:05:40.481Z,40.10
2018-03-23T13:08:08.241Z,40.20
2018-03-23T13:10:36.007Z,40.20
2018-03-23T13:13:03.161Z,40.10
2018-03-23T13:15:30.301Z,40.30
2018-03-23T13:17:57.441Z,40.30
2018-03-23T13:20:24.601Z,40.40
2018-03-23T13:22:51.786Z,40.50
2018-03-23T13:25:19.846Z,40.70
2018-03-23T13:27:46.998Z,40.60
2018-03-23T13:30:14.159Z,40.70
2018-03-23T13:32:41.300Z,40.70
2018-03-23T13:35:09.058Z,40.80
2018-03-23T13:37:36.292Z,40.80
2018-03-23T13:40:03.359Z,40.80
2018-03-23T13:42:30.517Z,40.80
2018-03-23T13:44:57.658Z,40.90
2018-03-23T13:47:24.818Z,40.90
2018-03-23T13:49:51.958Z,41.00
2018-03-23T13:52:19.098Z,40.90
2018-03-23T13:54:46.258Z,40.90
2018-03-23T13:57:13.398Z,40.90
2018-03-23T13:59:46.698Z,40.90
2018-03-23T14:02:13.840Z,40.90
2018-03-23T14:04:40.998Z,40.90
2018-03-23T14:07:08.258Z,40.90
2018-03-23T14:09:35.298Z,40.80
2018-03-23T14:12:03.058Z,41.00
2018-03-23T14:14:30.227Z,40.90
2018-03-23T14:16:57.357Z,40.90
2018-03-23T14:19:24.498Z,40.90
2018-03-23T14:21:51.658Z,41.00
2018-03-23T14:24:19.732Z,41.70
2018-03-23T14:26:47.498Z,41.30
2018-03-23T14:29:15.262Z,41.20
2018-03-23T14:31:42.418Z,41.20
2018-03-23T14:34:09.558Z,41.20
2018-03-23T14:36:38.239Z,41.30
2018-03-23T14:39:05.398Z,41.20
2018-03-23T14:41:32.538Z,41.20
2018-03-23T14:43:59.678Z,41.30
2018-03-23T14:46:26.838Z,41.30
2018-03-23T14:48:53.978Z,41.20
2018-03-23T14:51:21.138Z,41.40
2018-03-23T14:53:48.278Z,41.30
2018-03-23T14:56:15.439Z,41.30
2018-03-23T14:58:49.337Z,41.40
2018-03-23T15:01:16.498Z,41.30
2018-03-23T15:03:44.258Z,41.40
2018-03-23T15:06:12.318Z,41.40
2018-03-23T15:08:39.479Z,41.40
2018-03-23T15:11:07.238Z,41.60
2018-03-23T15:13:34.378Z,41.40
2018-03-23T15:16:01.592Z,41.40
2018-03-23T15:18:28.698Z,41.50
2018-03-23T15:20:56.758Z,41.60
2018-03-23T15:23:23.918Z,41.60
2018-03-23T15:25:51.058Z,41.60
2018-03-23T15:28:18.219Z,41.70
2018-03-23T15:30:45.358Z,41.60
2018-03-23T15:33:12.518Z,41.60
2018-03-23T15:35:39.660Z,41.60
2018-03-23T15:38:07.418Z,41.60
2018-03-23T15:40:34.578Z,41.60
2018-03-23T15:43:02.338Z,41.70
2018-03-23T15:45:30.098Z,41.80
2018-03-23T15:47:57.258Z,41.60
2018-03-23T15:50:25.018Z,41.70
2018-03-23T15:52:52.163Z,41.60
2018-03-23T15:55:19.320Z,41.70
2018-03-23T15:57:46.461Z,41.70
2018-03-23T16:00:14.227Z,41.70
2018-03-23T16:02:41.381Z,41.70
2018-03-23T16:05:09.440Z,41.50
2018-03-23T16:07:36.600Z,41.50
2018-03-23T16:10:04.040Z,41.50
2018-03-23T16:12:31.205Z,41.50
2018-03-23T16:14:58.339Z,41.60
2018-03-23T16:17:25.501Z,41.50
2018-03-23T16:19:53.480Z,41.20
2018-03-23T16:22:20.721Z,41.50
2018-03-23T16:24:47.860Z,41.50
2018-03-23T16:27:15.021Z,41.60
2018-03-23T16:29:42.181Z,41.60
2018-03-23T16:32:09.320Z,41.50
2018-03-23T16:34:36.400Z,41.60
2018-03-23T16:37:04.201Z,41.60
2018-03-23T16:39:31.247Z,41.70
2018-03-23T16:41:58.530Z,41.60
2018-03-23T16:44:25.490Z,41.60
2018-03-23T16:46:52.385Z,41.70
2018-03-23T16:49:19.488Z,41.60
2018-03-23T16:51:47.169Z,41.70
2018-03-23T16:54:14.029Z,41.70
2018-03-23T16:56:41.065Z,41.70
2018-03-23T16:59:08.025Z,41.80
2018-03-23T17:01:35.104Z,41.80
2018-03-23T17:04:02.063Z,41.90
2018-03-23T17:06:29.399Z,41.80
2018-03-23T17:08:56.402Z,41.90
2018-03-23T17:11:23.340Z,42.00
2018-03-23T17:13:50.245Z,42.00
2018-03-23T17:16:17.237Z,42.10
2018-03-23T17:18:44.538Z,42.10
2018-03-23T17:21:11.639Z,42.00
2018-03-23T17:23:38.620Z,42.10
2018-03-23T17:26:05.560Z,42.20
2018-03-23T17:28:32.525Z,42.10
2018-03-23T17:30:59.486Z,42.00
2018-03-23T17:33:26.829Z,42.00
2018-03-23T17:35:53.767Z,42.00
2018-03-23T17:38:20.710Z,42.00
2018-03-23T17:40:47.670Z,42.00
2018-03-23T17:43:14.648Z,42.00
2018-03-23T17:45:41.549Z,42.00
2018-03-23T17:48:08.509Z,42.00
2018-03-23T17:50:35.509Z,41.80
2018-03-23T17:53:02.448Z,42.10
2018-03-23T17:55:29.349Z,42.20
2018-03-23T17:57:57.109Z,42.40
2018-03-23T18:00:24.869Z,42.50
2018-03-23T18:02:51.792Z,42.40
2018-03-23T18:05:18.809Z,42.50
2018-03-23T18:07:46.290Z,42.50
2018-03-23T18:10:13.450Z,42.50
2018-03-23T18:12:40.590Z,42.50
2018-03-23T18:15:07.750Z,42.40
2018-03-23T18:17:34.909Z,42.40
2018-03-23T18:20:02.975Z,42.30
2018-03-23T18:22:30.129Z,42.20
2018-03-23T18:24:58.191Z,42.20
2018-03-23T18:27:25.350Z,42.10
2018-03-23T18:29:53.409Z,42.30
2018-03-23T18:32:20.569Z,42.20
2018-03-23T18:34:48.630Z,42.30
2018-03-23T18:37:15.789Z,42.20
2018-03-23T18:39:42.929Z,42.30
2018-03-23T18:42:10.069Z,42.30
2018-03-23T18:44:37.529Z,42.30
2018-03-23T18:47:04.690Z,42.30
2018-03-23T18:49:31.832Z,42.30
2018-03-23T18:51:58.750Z,42.30
2018-03-23T18:54:26.737Z,42.30
2018-03-23T18:56:53.703Z,42.30
2018-03-23T18:59:20.642Z,42.30
2018-03-23T19:01:47.484Z,42.40
2018-03-23T19:04:14.509Z,42.30
2018-03-23T19:06:41.568Z,42.40
2018-03-23T19:09:08.527Z,42.40
2018-03-23T19:11:35.569Z,42.40
2018-03-23T19:14:02.622Z,42.40
2018-03-23T19:16:29.584Z,42.40
2018-03-23T19:18:57.002Z,42.50
2018-03-23T19:21:24.162Z,42.50
2018-03-23T19:23:51.302Z,42.60
2018-03-23T19:26:18.462Z,42.60
2018-03-23T19:28:45.650Z,42.60
2018-03-23T19:31:12.762Z,42.70
2018-03-23T19:33:39.928Z,42.80
2018-03-23T19:36:07.682Z,42.90
2018-03-23T19:38:35.744Z,42.80
2018-03-23T19:41:03.202Z,42.80
2018-03-23T19:43:30.362Z,42.80
2018-03-23T19:45:58.122Z,42.90
2018-03-23T19:48:26.190Z,42.90
2018-03-23T19:50:53.942Z,42.80
2018-03-23T19:53:21.102Z,43.30
2018-03-23T19:55:48.242Z,42.80
2018-03-23T19:58:15.402Z,42.80
2018-03-23T20:00:43.163Z,42.80
2018-03-23T20:03:10.302Z,42.70
2018-03-23T20:05:37.464Z,42.70
2018-03-23T20:08:04.382Z,42.70
2018-03-23T20:10:31.751Z,42.70
2018-03-23T20:12:58.911Z,42.70
2018-03-23T20:15:26.978Z,42.70
2018-03-23T20:18:00.271Z,42.70
2018-03-23T20:20:33.251Z,42.70
2018-03-23T20:23:01.011Z,42.50
2018-03-23T20:25:28.172Z,42.70
2018-03-23T20:30:58.111Z,42.80
2018-03-23T20:33:25.251Z,42.70
2018-03-23T20:35:53.131Z,42.80
2018-03-23T20:38:20.471Z,42.70
2018-03-23T20:40:47.932Z,42.70
2018-03-23T20:43:15.091Z,42.70
2018-03-23T20:45:43.571Z,42.60
2018-03-23T20:48:10.911Z,42.60
2018-03-23T20:50:38.071Z,42.50
2018-03-23T20:53:05.212Z,42.50
2018-03-23T20:55:32.372Z,42.50
2018-03-23T20:58:00.131Z,42.50
2018-03-23T21:00:27.272Z,42.50
2018-03-23T21:02:55.352Z,42.50
2018-03-23T21:05:23.111Z,42.50
2018-03-23T21:07:50.251Z,42.50
2018-03-23T21:10:17.418Z,42.50
2018-03-23T21:12:45.693Z,42.70
2018-03-23T21:15:12.933Z,42.70
2018-03-23T21:17:40.091Z,42.60
2018-03-23T21:20:07.231Z,42.70
2018-03-23T21:22:34.391Z,42.80
2018-03-23T21:25:01.856Z,42.70
2018-03-23T21:27:29.603Z,42.70
2018-03-23T21:29:57.366Z,42.70
2018-03-23T21:32:25.128Z,42.70
2018-03-23T21:34:52.287Z,42.70
2018-03-23T21:37:19.427Z,42.70
2018-03-23T21:39:47.508Z,42.70
2018-03-23T21:42:15.584Z,42.70
2018-03-23T21:44:43.650Z,42.70
2018-03-23T21:47:10.803Z,42.70
2018-03-23T21:49:37.942Z,42.70
2018-03-23T21:52:05.102Z,42.70
2018-03-23T21:54:33.163Z,42.70
2018-03-23T21:57:00.333Z,42.60
2018-03-23T21:59:27.462Z,42.70
2018-03-23T22:01:54.606Z,42.60
2018-03-23T22:04:21.769Z,42.60
2018-03-23T22:06:49.830Z,42.70
2018-03-23T22:09:16.989Z,42.60
2018-03-23T22:11:51.809Z,42.70
2018-03-23T22:14:18.969Z,42.60
2018-03-23T22:16:46.110Z,42.60
2018-03-23T22:19:13.470Z,42.70
2018-03-23T22:21:41.651Z,42.70
2018-03-23T22:24:08.790Z,42.80
2018-03-23T22:26:35.949Z,42.70
2018-03-23T22:29:03.089Z,42.80
2018-03-23T22:31:30.257Z,42.80
2018-03-23T22:33:58.310Z,42.90
2018-03-23T22:36:26.389Z,43.10
2018-03-23T22:38:54.449Z,42.90
2018-03-23T22:41:21.592Z,42.90
2018-03-23T22:43:48.754Z,42.90
2018-03-23T22:46:17.750Z,43.00
2018-03-23T22:48:44.889Z,42.90
2018-03-23T22:51:12.051Z,42.90
2018-03-23T22:53:39.190Z,43.00
2018-03-23T22:56:06.350Z,42.90
2018-03-23T22:58:34.410Z,43.00
2018-03-23T23:01:01.549Z,43.00
2018-03-23T23:03:28.710Z,43.10
2018-03-23T23:05:55.890Z,43.10
2018-03-23T23:08:23.351Z,42.90
2018-03-23T23:10:50.489Z,43.10
2018-03-23T23:13:17.650Z,43.20
2018-03-23T23:15:45.710Z,43.20
2018-03-23T23:18:12.869Z,43.20
2018-03-23T23:20:40.009Z,43.20
2018-03-23T23:23:07.476Z,43.10
2018-03-23T23:25:34.629Z,43.20
2018-03-23T23:28:03.009Z,43.20
2018-03-23T23:30:30.149Z,43.10
2018-03-23T23:32:57.289Z,43.10
2018-03-23T23:35:24.450Z,43.00
2018-03-23T23:37:51.589Z,43.20
2018-03-23T23:40:18.750Z,43.20
2018-03-23T23:42:46.809Z,43.30
2018-03-23T23:45:13.970Z,43.20
2018-03-23T23:47:42.030Z,43.20
2018-03-23T23:50:10.409Z,43.20
2018-03-23T23:52:37.569Z,43.30
2018-03-23T23:55:05.630Z,43.30
2018-03-23T23:57:33.090Z,43.30
